sensor_id;sensor_type;location;lat;lon;timestamp;pressure;altitude;pressure_sealevel;temperature;humidity
39243;BME280;29823;47.404;8.566;2023-01-26T00:01:24;96866.78;;;1.46;100.00
39243;BME280;29823;47.404;8.566;2023-01-26T00:03:54;96840.78;;;1.43;100.00
39243;BME280;29823;47.404;8.566;2023-01-26T00:06:22;96840.59;;;1.45;100.00
39243;BME280;29823;47.404;8.566;2023-01-26T00:08:52;96845.72;;;1.46;100.00
39243;BME280;29823;47.404;8.566;2023-01-26T00:11:24;96837.63;;;1.40;100.00
39243;BME280;29823;47.404;8.566;2023-01-26T00:13:53;96837.97;;;1.45;100.00
39243;BME280;29823;47.404;8.566;2023-01-26T00:16:21;96829.59;;;1.49;100.00
39243;BME280;29823;47.404;8.566;2023-01-26T00:18:49;96834.16;;;1.47;100.00
39243;BME280;29823;47.404;8.566;2023-01-26T00:21:22;96829.22;;;1.52;100.00
39243;BME280;29823;47.404;8.566;2023-01-26T00:23:51;96814.94;;;1.47;100.00
39243;BME280;29823;47.404;8.566;2023-01-26T00:26:22;96825.94;;;1.42;100.00
39243;BME280;29823;47.404;8.566;2023-01-26T00:28:50;96829.09;;;1.38;100.00
39243;BME280;29823;47.404;8.566;2023-01-26T00:31:23;96832.06;;;1.51;100.00
39243;BME280;29823;47.404;8.566;2023-01-26T00:33:52;96825.66;;;1.37;100.00
39243;BME280;29823;47.404;8.566;2023-01-26T00:36:22;96827.09;;;1.48;100.00
39243;BME280;29823;47.404;8.566;2023-01-26T00:38:50;96825.59;;;1.53;100.00
39243;BME280;29823;47.404;8.566;2023-01-26T00:41:18;96809.66;;;1.47;100.00
39243;BME280;29823;47.404;8.566;2023-01-26T00:44:03;96813.63;;;1.43;100.00
39243;BME280;29823;47.404;8.566;2023-01-26T00:46:31;96828.56;;;1.58;100.00
39243;BME280;29823;47.404;8.566;2023-01-26T00:48:59;96829.72;;;1.56;100.00
39243;BME280;29823;47.404;8.566;2023-01-26T00:51:28;96822.31;;;1.51;100.00
39243;BME280;29823;47.404;8.566;2023-01-26T00:53:56;96829.56;;;1.41;100.00
39243;BME280;29823;47.404;8.566;2023-01-26T00:56:24;96824.97;;;1.43;100.00
39243;BME280;29823;47.404;8.566;2023-01-26T00:58:53;96830.88;;;1.53;100.00
39243;BME280;29823;47.404;8.566;2023-01-26T01:01:21;96825.94;;;1.50;100.00
39243;BME280;29823;47.404;8.566;2023-01-26T01:03:49;96826.78;;;1.51;100.00
39243;BME280;29823;47.404;8.566;2023-01-26T01:06:17;96825.44;;;1.55;100.00
39243;BME280;29823;47.404;8.566;2023-01-26T01:08:46;96814.13;;;1.38;100.00
39243;BME280;29823;47.404;8.566;2023-01-26T01:11:15;96815.09;;;1.45;100.00
39243;BME280;29823;47.404;8.566;2023-01-26T01:13:42;96820.72;;;1.34;100.00
39243;BME280;29823;47.404;8.566;2023-01-26T01:16:12;96818.38;;;1.55;100.00
39243;BME280;29823;47.404;8.566;2023-01-26T01:18:44;96827.72;;;1.66;100.00
39243;BME280;29823;47.404;8.566;2023-01-26T01:21:14;96823.97;;;1.36;100.00
39243;BME280;29823;47.404;8.566;2023-01-26T01:23:43;96826.81;;;1.35;100.00
39243;BME280;29823;47.404;8.566;2023-01-26T01:26:12;96818.91;;;1.35;100.00
39243;BME280;29823;47.404;8.566;2023-01-26T01:28:42;96820.03;;;1.40;100.00
39243;BME280;29823;47.404;8.566;2023-01-26T01:31:13;96811.28;;;1.40;100.00
39243;BME280;29823;47.404;8.566;2023-01-26T01:33:41;96819.69;;;1.51;100.00
39243;BME280;29823;47.404;8.566;2023-01-26T01:36:11;96814.31;;;1.21;100.00
39243;BME280;29823;47.404;8.566;2023-01-26T01:38:40;96813.47;;;1.20;100.00
39243;BME280;29823;47.404;8.566;2023-01-26T01:41:08;96809.22;;;1.11;100.00
39243;BME280;29823;47.404;8.566;2023-01-26T01:43:38;96796.53;;;1.31;100.00
39243;BME280;29823;47.404;8.566;2023-01-26T01:46:12;96799.63;;;1.34;100.00
39243;BME280;29823;47.404;8.566;2023-01-26T01:48:47;96806.22;;;1.38;100.00
39243;BME280;29823;47.404;8.566;2023-01-26T01:51:22;96799.28;;;1.45;100.00
39243;BME280;29823;47.404;8.566;2023-01-26T01:53:55;96805.19;;;1.47;100.00
39243;BME280;29823;47.404;8.566;2023-01-26T01:56:27;96797.97;;;1.41;100.00
39243;BME280;29823;47.404;8.566;2023-01-26T01:58:58;96801.44;;;1.42;100.00
39243;BME280;29823;47.404;8.566;2023-01-26T02:01:29;96795.69;;;1.38;100.00
39243;BME280;29823;47.404;8.566;2023-01-26T02:04:01;96788.06;;;1.59;100.00
39243;BME280;29823;47.404;8.566;2023-01-26T02:06:35;96784.75;;;1.57;100.00
39243;BME280;29823;47.404;8.566;2023-01-26T02:09:04;96791.19;;;1.55;100.00
39243;BME280;29823;47.404;8.566;2023-01-26T02:11:36;96789.75;;;1.44;100.00
39243;BME280;29823;47.404;8.566;2023-01-26T02:14:08;96790.41;;;1.38;100.00
39243;BME280;29823;47.404;8.566;2023-01-26T02:16:37;96793.38;;;1.35;100.00
39243;BME280;29823;47.404;8.566;2023-01-26T02:19:13;96792.09;;;1.07;100.00
39243;BME280;29823;47.404;8.566;2023-01-26T02:21:45;96791.78;;;1.10;100.00
39243;BME280;29823;47.404;8.566;2023-01-26T02:24:16;96789.31;;;1.09;100.00
39243;BME280;29823;47.404;8.566;2023-01-26T02:26:48;96783.53;;;1.13;100.00
39243;BME280;29823;47.404;8.566;2023-01-26T02:29:16;96781.56;;;1.23;100.00
39243;BME280;29823;47.404;8.566;2023-01-26T02:31:44;96765.75;;;1.15;100.00
39243;BME280;29823;47.404;8.566;2023-01-26T02:34:12;96769.72;;;1.03;100.00
39243;BME280;29823;47.404;8.566;2023-01-26T02:36:40;96777.63;;;1.11;100.00
39243;BME280;29823;47.404;8.566;2023-01-26T02:39:19;96764.25;;;1.29;100.00
39243;BME280;29823;47.404;8.566;2023-01-26T02:41:50;96746.69;;;1.13;100.00
39243;BME280;29823;47.404;8.566;2023-01-26T02:44:36;96759.53;;;1.16;100.00
39243;BME280;29823;47.404;8.566;2023-01-26T02:47:10;96749.00;;;1.16;100.00
39243;BME280;29823;47.404;8.566;2023-01-26T02:49:38;96745.00;;;1.20;100.00
39243;BME280;29823;47.404;8.566;2023-01-26T02:52:18;96741.09;;;1.08;100.00
39243;BME280;29823;47.404;8.566;2023-01-26T02:54:46;96748.81;;;1.10;100.00
39243;BME280;29823;47.404;8.566;2023-01-26T02:57:38;96748.00;;;1.17;100.00
39243;BME280;29823;47.404;8.566;2023-01-26T03:00:09;96745.56;;;1.08;100.00
39243;BME280;29823;47.404;8.566;2023-01-26T03:02:38;96736.16;;;1.05;100.00
39243;BME280;29823;47.404;8.566;2023-01-26T03:05:07;96742.25;;;1.14;100.00
39243;BME280;29823;47.404;8.566;2023-01-26T03:07:35;96742.06;;;1.15;100.00
39243;BME280;29823;47.404;8.566;2023-01-26T03:10:04;96727.13;;;1.00;100.00
39243;BME280;29823;47.404;8.566;2023-01-26T03:12:32;96735.66;;;1.10;100.00
39243;BME280;29823;47.404;8.566;2023-01-26T03:15:02;96732.69;;;1.21;100.00
39243;BME280;29823;47.404;8.566;2023-01-26T03:17:48;96730.19;;;1.27;100.00
39243;BME280;29823;47.404;8.566;2023-01-26T03:20:16;96726.78;;;1.19;100.00
39243;BME280;29823;47.404;8.566;2023-01-26T03:23:02;96728.06;;;1.23;100.00
39243;BME280;29823;47.404;8.566;2023-01-26T03:25:47;96730.84;;;1.29;100.00
39243;BME280;29823;47.404;8.566;2023-01-26T03:28:32;96728.72;;;1.17;100.00
39243;BME280;29823;47.404;8.566;2023-01-26T03:31:05;96725.25;;;1.24;100.00
39243;BME280;29823;47.404;8.566;2023-01-26T03:33:33;96732.50;;;1.14;100.00
39243;BME280;29823;47.404;8.566;2023-01-26T03:36:01;96726.59;;;1.12;100.00
39243;BME280;29823;47.404;8.566;2023-01-26T03:38:28;96732.94;;;1.42;100.00
39243;BME280;29823;47.404;8.566;2023-01-26T03:40:57;96720.88;;;1.55;100.00
39243;BME280;29823;47.404;8.566;2023-01-26T03:43:42;96723.25;;;1.26;100.00
39243;BME280;29823;47.404;8.566;2023-01-26T03:46:29;96707.34;;;1.12;100.00
39243;BME280;29823;47.404;8.566;2023-01-26T03:49:14;96716.06;;;1.12;100.00
39243;BME280;29823;47.404;8.566;2023-01-26T03:51:59;96713.09;;;1.15;100.00
39243;BME280;29823;47.404;8.566;2023-01-26T03:54:44;96710.47;;;1.15;100.00
39243;BME280;29823;47.404;8.566;2023-01-26T03:57:30;96704.53;;;1.21;100.00
39243;BME280;29823;47.404;8.566;2023-01-26T03:59:58;96704.22;;;1.16;100.00
39243;BME280;29823;47.404;8.566;2023-01-26T04:02:27;96708.00;;;1.14;100.00
39243;BME280;29823;47.404;8.566;2023-01-26T04:05:12;96707.22;;;0.97;100.00
39243;BME280;29823;47.404;8.566;2023-01-26T04:08:01;96704.41;;;0.91;100.00
39243;BME280;29823;47.404;8.566;2023-01-26T04:10:46;96690.78;;;0.87;100.00
39243;BME280;29823;47.404;8.566;2023-01-26T04:13:14;96692.59;;;0.87;100.00
39243;BME280;29823;47.404;8.566;2023-01-26T04:15:59;96696.38;;;0.92;100.00
39243;BME280;29823;47.404;8.566;2023-01-26T04:18:46;96697.31;;;1.07;100.00
39243;BME280;29823;47.404;8.566;2023-01-26T04:21:31;96686.31;;;1.04;100.00
39243;BME280;29823;47.404;8.566;2023-01-26T04:24:01;96689.44;;;0.99;100.00
39243;BME280;29823;47.404;8.566;2023-01-26T04:26:35;96680.41;;;0.86;100.00
39243;BME280;29823;47.404;8.566;2023-01-26T04:29:05;96675.00;;;0.95;100.00
39243;BME280;29823;47.404;8.566;2023-01-26T04:31:33;96686.47;;;1.10;100.00
39243;BME280;29823;47.404;8.566;2023-01-26T04:34:04;96685.59;;;1.18;100.00
39243;BME280;29823;47.404;8.566;2023-01-26T04:36:32;96681.22;;;1.10;100.00
39243;BME280;29823;47.404;8.566;2023-01-26T04:39:00;96672.78;;;1.15;100.00
39243;BME280;29823;47.404;8.566;2023-01-26T04:41:29;96676.47;;;0.98;100.00
39243;BME280;29823;47.404;8.566;2023-01-26T04:43:57;96673.84;;;0.98;100.00
39243;BME280;29823;47.404;8.566;2023-01-26T04:46:25;96664.94;;;0.91;100.00
39243;BME280;29823;47.404;8.566;2023-01-26T04:48:53;96669.22;;;1.00;100.00
39243;BME280;29823;47.404;8.566;2023-01-26T04:51:22;96669.38;;;1.06;100.00
39243;BME280;29823;47.404;8.566;2023-01-26T04:53:51;96652.25;;;1.02;100.00
39243;BME280;29823;47.404;8.566;2023-01-26T04:56:21;96658.84;;;1.06;100.00
39243;BME280;29823;47.404;8.566;2023-01-26T04:58:50;96664.41;;;1.03;100.00
39243;BME280;29823;47.404;8.566;2023-01-26T05:01:18;96666.94;;;0.89;100.00
39243;BME280;29823;47.404;8.566;2023-01-26T05:03:47;96662.81;;;0.86;100.00
39243;BME280;29823;47.404;8.566;2023-01-26T05:06:15;96670.53;;;1.04;100.00
39243;BME280;29823;47.404;8.566;2023-01-26T05:08:44;96669.22;;;1.00;100.00
39243;BME280;29823;47.404;8.566;2023-01-26T05:11:12;96657.00;;;1.07;100.00
39243;BME280;29823;47.404;8.566;2023-01-26T05:13:40;96655.56;;;0.96;100.00
39243;BME280;29823;47.404;8.566;2023-01-26T05:16:08;96659.09;;;1.19;100.00
39243;BME280;29823;47.404;8.566;2023-01-26T05:18:39;96641.81;;;1.25;100.00
39243;BME280;29823;47.404;8.566;2023-01-26T05:21:08;96645.31;;;1.17;100.00
39243;BME280;29823;47.404;8.566;2023-01-26T05:23:36;96649.91;;;1.15;100.00
39243;BME280;29823;47.404;8.566;2023-01-26T05:26:06;96643.28;;;1.27;100.00
39243;BME280;29823;47.404;8.566;2023-01-26T05:28:34;96641.72;;;1.10;100.00
39243;BME280;29823;47.404;8.566;2023-01-26T05:33:30;96643.34;;;1.11;100.00
39243;BME280;29823;47.404;8.566;2023-01-26T05:36:02;96624.44;;;1.08;100.00
39243;BME280;29823;47.404;8.566;2023-01-26T05:38:31;96638.78;;;1.05;100.00
39243;BME280;29823;47.404;8.566;2023-01-26T05:40:58;96640.25;;;1.08;100.00
39243;BME280;29823;47.404;8.566;2023-01-26T05:43:28;96633.59;;;1.20;100.00
39243;BME280;29823;47.404;8.566;2023-01-26T05:45:56;96646.09;;;1.18;100.00
39243;BME280;29823;47.404;8.566;2023-01-26T05:48:23;96638.88;;;1.20;100.00
39243;BME280;29823;47.404;8.566;2023-01-26T05:50:54;96646.41;;;1.31;100.00
39243;BME280;29823;47.404;8.566;2023-01-26T05:53:22;96649.06;;;1.23;100.00
39243;BME280;29823;47.404;8.566;2023-01-26T05:55:50;96649.41;;;1.20;100.00
39243;BME280;29823;47.404;8.566;2023-01-26T05:58:18;96645.94;;;1.27;100.00
39243;BME280;29823;47.404;8.566;2023-01-26T06:00:47;96648.41;;;1.21;100.00
39243;BME280;29823;47.404;8.566;2023-01-26T06:03:15;96648.75;;;1.18;100.00
39243;BME280;29823;47.404;8.566;2023-01-26T06:05:42;96638.34;;;1.24;100.00
39243;BME280;29823;47.404;8.566;2023-01-26T06:08:11;96644.00;;;1.13;100.00
39243;BME280;29823;47.404;8.566;2023-01-26T06:10:39;96645.69;;;0.98;100.00
39243;BME280;29823;47.404;8.566;2023-01-26T06:13:06;96653.63;;;0.90;100.00
39243;BME280;29823;47.404;8.566;2023-01-26T06:15:34;96653.78;;;0.89;100.00
39243;BME280;29823;47.404;8.566;2023-01-26T06:18:03;96654.41;;;0.91;100.00
39243;BME280;29823;47.404;8.566;2023-01-26T06:20:31;96652.56;;;1.07;100.00
39243;BME280;29823;47.404;8.566;2023-01-26T06:23:00;96656.22;;;0.98;100.00
39243;BME280;29823;47.404;8.566;2023-01-26T06:25:28;96659.16;;;1.03;100.00
39243;BME280;29823;47.404;8.566;2023-01-26T06:27:56;96653.69;;;1.13;100.00
39243;BME280;29823;47.404;8.566;2023-01-26T06:30:26;96655.19;;;1.07;100.00
39243;BME280;29823;47.404;8.566;2023-01-26T06:32:55;96659.78;;;1.13;100.00
39243;BME280;29823;47.404;8.566;2023-01-26T06:35:27;96649.25;;;1.13;100.00
39243;BME280;29823;47.404;8.566;2023-01-26T06:37:55;96644.34;;;1.10;100.00
39243;BME280;29823;47.404;8.566;2023-01-26T06:40:23;96609.50;;;0.92;100.00
39243;BME280;29823;47.404;8.566;2023-01-26T06:42:50;96644.94;;;1.20;100.00
39243;BME280;29823;47.404;8.566;2023-01-26T06:45:18;96650.53;;;1.25;100.00
39243;BME280;29823;47.404;8.566;2023-01-26T06:47:46;96648.88;;;1.24;100.00
39243;BME280;29823;47.404;8.566;2023-01-26T06:50:17;96640.03;;;1.17;100.00
39243;BME280;29823;47.404;8.566;2023-01-26T06:52:50;96648.38;;;1.29;100.00
39243;BME280;29823;47.404;8.566;2023-01-26T06:55:21;96648.78;;;1.10;100.00
39243;BME280;29823;47.404;8.566;2023-01-26T06:57:50;96653.84;;;1.19;100.00
39243;BME280;29823;47.404;8.566;2023-01-26T07:00:18;96652.41;;;1.09;100.00
39243;BME280;29823;47.404;8.566;2023-01-26T07:02:47;96652.72;;;1.14;100.00
39243;BME280;29823;47.404;8.566;2023-01-26T07:05:15;96652.06;;;1.12;100.00
39243;BME280;29823;47.404;8.566;2023-01-26T07:07:42;96654.88;;;1.10;100.00
39243;BME280;29823;47.404;8.566;2023-01-26T07:10:12;96655.84;;;1.17;100.00
39243;BME280;29823;47.404;8.566;2023-01-26T07:12:41;96649.72;;;1.17;100.00
39243;BME280;29823;47.404;8.566;2023-01-26T07:15:10;96651.53;;;1.24;100.00
39243;BME280;29823;47.404;8.566;2023-01-26T07:17:38;96646.88;;;1.26;100.00
39243;BME280;29823;47.404;8.566;2023-01-26T07:20:07;96648.63;;;1.03;100.00
39243;BME280;29823;47.404;8.566;2023-01-26T07:22:35;96647.25;;;1.23;100.00
39243;BME280;29823;47.404;8.566;2023-01-26T07:25:03;96652.81;;;1.28;100.00
39243;BME280;29823;47.404;8.566;2023-01-26T07:27:32;96641.97;;;1.23;100.00
39243;BME280;29823;47.404;8.566;2023-01-26T07:30:00;96639.19;;;1.25;100.00
39243;BME280;29823;47.404;8.566;2023-01-26T07:32:28;96657.13;;;1.21;100.00
39243;BME280;29823;47.404;8.566;2023-01-26T07:34:56;96655.16;;;1.23;100.00
39243;BME280;29823;47.404;8.566;2023-01-26T07:37:26;96638.72;;;1.13;100.00
39243;BME280;29823;47.404;8.566;2023-01-26T07:39:54;96653.19;;;1.17;100.00
39243;BME280;29823;47.404;8.566;2023-01-26T07:42:23;96646.78;;;1.12;100.00
39243;BME280;29823;47.404;8.566;2023-01-26T07:44:53;96649.94;;;1.07;100.00
39243;BME280;29823;47.404;8.566;2023-01-26T07:47:21;96656.09;;;1.30;100.00
39243;BME280;29823;47.404;8.566;2023-01-26T07:49:48;96650.72;;;1.24;100.00
39243;BME280;29823;47.404;8.566;2023-01-26T07:52:16;96640.84;;;1.18;100.00
39243;BME280;29823;47.404;8.566;2023-01-26T07:54:44;96643.34;;;1.11;100.00
39243;BME280;29823;47.404;8.566;2023-01-26T07:57:12;96643.66;;;1.16;100.00
39243;BME280;29823;47.404;8.566;2023-01-26T07:59:40;96648.63;;;1.11;100.00
39243;BME280;29823;47.404;8.566;2023-01-26T08:02:10;96648.56;;;1.19;100.00
39243;BME280;29823;47.404;8.566;2023-01-26T08:04:37;96647.72;;;1.27;100.00
39243;BME280;29823;47.404;8.566;2023-01-26T08:07:05;96647.41;;;1.30;100.00
39243;BME280;29823;47.404;8.566;2023-01-26T08:09:33;96650.84;;;1.30;100.00
39243;BME280;29823;47.404;8.566;2023-01-26T08:12:01;96639.69;;;1.20;100.00
39243;BME280;29823;47.404;8.566;2023-01-26T08:14:29;96646.41;;;1.31;100.00
39243;BME280;29823;47.404;8.566;2023-01-26T08:17:12;96652.19;;;1.87;100.00
39243;BME280;29823;47.404;8.566;2023-01-26T08:19:43;96651.59;;;1.77;100.00
39243;BME280;29823;47.404;8.566;2023-01-26T08:22:11;96659.72;;;1.29;100.00
39243;BME280;29823;47.404;8.566;2023-01-26T08:24:38;96654.78;;;1.34;100.00
39243;BME280;29823;47.404;8.566;2023-01-26T08:27:06;96654.59;;;1.36;100.00
39243;BME280;29823;47.404;8.566;2023-01-26T08:29:34;96659.03;;;1.35;100.00
39243;BME280;29823;47.404;8.566;2023-01-26T08:32:02;96647.19;;;1.31;100.00
39243;BME280;29823;47.404;8.566;2023-01-26T08:34:32;96654.31;;;1.31;100.00
39243;BME280;29823;47.404;8.566;2023-01-26T08:36:59;96641.63;;;1.26;100.00
39243;BME280;29823;47.404;8.566;2023-01-26T08:39:27;96645.88;;;1.35;100.00
39243;BME280;29823;47.404;8.566;2023-01-26T08:41:55;96651.16;;;1.35;100.00
39243;BME280;29823;47.404;8.566;2023-01-26T08:44:23;96652.41;;;1.47;100.00
39243;BME280;29823;47.404;8.566;2023-01-26T08:46:50;96650.81;;;1.38;100.00
39243;BME280;29823;47.404;8.566;2023-01-26T08:49:19;96658.63;;;1.16;100.00
39243;BME280;29823;47.404;8.566;2023-01-26T08:51:48;96654.56;;;1.05;100.00
39243;BME280;29823;47.404;8.566;2023-01-26T08:54:16;96659.09;;;1.19;100.00
39243;BME280;29823;47.404;8.566;2023-01-26T08:56:43;96657.09;;;1.29;100.00
39243;BME280;29823;47.404;8.566;2023-01-26T08:59:11;96655.00;;;1.17;100.00
39243;BME280;29823;47.404;8.566;2023-01-26T09:01:39;96651.56;;;1.08;100.00
39243;BME280;29823;47.404;8.566;2023-01-26T09:04:07;96650.94;;;0.98;100.00
39243;BME280;29823;47.404;8.566;2023-01-26T09:06:35;96643.03;;;1.06;100.00
39243;BME280;29823;47.404;8.566;2023-01-26T09:09:04;96640.03;;;1.17;100.00
39243;BME280;29823;47.404;8.566;2023-01-26T09:11:35;96641.91;;;1.39;100.00
39243;BME280;29823;47.404;8.566;2023-01-26T09:14:03;96638.50;;;1.23;100.00
39243;BME280;29823;47.404;8.566;2023-01-26T09:16:31;96640.97;;;1.32;100.00
39243;BME280;29823;47.404;8.566;2023-01-26T09:18:58;96633.81;;;1.10;100.00
39243;BME280;29823;47.404;8.566;2023-01-26T09:21:26;96649.97;;;1.38;100.00
39243;BME280;29823;47.404;8.566;2023-01-26T09:23:54;96649.91;;;1.54;100.00
39243;BME280;29823;47.404;8.566;2023-01-26T09:26:24;96650.34;;;1.65;100.00
39243;BME280;29823;47.404;8.566;2023-01-26T09:28:52;96654.41;;;1.45;100.00
39243;BME280;29823;47.404;8.566;2023-01-26T09:31:20;96651.69;;;1.61;100.00
39243;BME280;29823;47.404;8.566;2023-01-26T09:33:48;96638.53;;;1.53;100.00
39243;BME280;29823;47.404;8.566;2023-01-26T09:36:16;96660.13;;;1.49;100.00
39243;BME280;29823;47.404;8.566;2023-01-26T09:38:44;96646.94;;;1.57;100.00
39243;BME280;29823;47.404;8.566;2023-01-26T09:41:24;96648.75;;;1.56;100.00
39243;BME280;29823;47.404;8.566;2023-01-26T09:44:01;96659.34;;;1.48;100.00
39243;BME280;29823;47.404;8.566;2023-01-26T09:46:39;96650.50;;;1.33;100.00
39243;BME280;29823;47.404;8.566;2023-01-26T09:49:14;96661.44;;;1.53;100.00
39243;BME280;29823;47.404;8.566;2023-01-26T09:51:48;96658.28;;;1.57;100.00
39243;BME280;29823;47.404;8.566;2023-01-26T09:54:27;96658.41;;;1.64;100.00
39243;BME280;29823;47.404;8.566;2023-01-26T09:56:59;96654.06;;;1.48;100.00
39243;BME280;29823;47.404;8.566;2023-01-26T09:59:31;96640.03;;;1.17;100.00
39243;BME280;29823;47.404;8.566;2023-01-26T10:02:09;96651.13;;;1.43;100.00
39243;BME280;29823;47.404;8.566;2023-01-26T10:04:48;96652.00;;;1.28;100.00
39243;BME280;29823;47.404;8.566;2023-01-26T10:07:18;96647.44;;;1.52;100.00
39243;BME280;29823;47.404;8.566;2023-01-26T10:09:48;96653.94;;;1.34;100.00
39243;BME280;29823;47.404;8.566;2023-01-26T10:12:18;96645.44;;;1.24;100.00
39243;BME280;29823;47.404;8.566;2023-01-26T10:14:52;96650.59;;;1.48;100.00
39243;BME280;29823;47.404;8.566;2023-01-26T10:17:29;96646.94;;;1.57;100.00
39243;BME280;29823;47.404;8.566;2023-01-26T10:20:02;96646.88;;;1.65;100.00
39243;BME280;29823;47.404;8.566;2023-01-26T10:22:39;96647.66;;;1.43;100.00
39243;BME280;29823;47.404;8.566;2023-01-26T10:25:14;96643.72;;;1.39;100.00
39243;BME280;29823;47.404;8.566;2023-01-26T10:27:43;96643.72;;;1.39;100.00
39243;BME280;29823;47.404;8.566;2023-01-26T10:30:16;96637.03;;;1.59;100.00
39243;BME280;29823;47.404;8.566;2023-01-26T10:32:49;96634.94;;;1.54;100.00
39243;BME280;29823;47.404;8.566;2023-01-26T10:35:18;96635.25;;;1.59;100.00
39243;BME280;29823;47.404;8.566;2023-01-26T10:37:46;96628.06;;;1.45;100.00
39243;BME280;29823;47.404;8.566;2023-01-26T10:40:15;96627.19;;;1.53;100.00
39243;BME280;29823;47.404;8.566;2023-01-26T10:42:53;96634.97;;;1.46;100.00
39243;BME280;29823;47.404;8.566;2023-01-26T10:45:26;96623.03;;;1.58;100.00
39243;BME280;29823;47.404;8.566;2023-01-26T10:48:16;96627.22;;;1.45;100.00
39243;BME280;29823;47.404;8.566;2023-01-26T10:50:45;96596.78;;;1.42;100.00
39243;BME280;29823;47.404;8.566;2023-01-26T10:53:19;96628.28;;;1.28;100.00
39243;BME280;29823;47.404;8.566;2023-01-26T10:56:00;96628.31;;;1.58;100.00
39243;BME280;29823;47.404;8.566;2023-01-26T10:58:42;96614.06;;;1.75;100.00
39243;BME280;29823;47.404;8.566;2023-01-26T11:01:13;96615.47;;;1.86;100.00
39243;BME280;29823;47.404;8.566;2023-01-26T11:04:03;96620.97;;;1.76;100.00
39243;BME280;29823;47.404;8.566;2023-01-26T11:06:32;96621.06;;;1.60;100.00
39243;BME280;29823;47.404;8.566;2023-01-26T11:09:16;96623.47;;;1.70;100.00
39243;BME280;29823;47.404;8.566;2023-01-26T11:11:54;96612.16;;;1.61;100.00
39243;BME280;29823;47.404;8.566;2023-01-26T11:14:23;96602.34;;;1.47;100.00
39243;BME280;29823;47.404;8.566;2023-01-26T11:16:59;96616.50;;;1.54;100.00
39243;BME280;29823;47.404;8.566;2023-01-26T11:19:48;96621.75;;;1.54;100.00
39243;BME280;29823;47.404;8.566;2023-01-26T11:22:22;96621.47;;;1.72;100.00
39243;BME280;29823;47.404;8.566;2023-01-26T11:25:00;96616.28;;;1.86;100.00
39243;BME280;29823;47.404;8.566;2023-01-26T11:27:38;96613.94;;;1.91;100.00
39243;BME280;29823;47.404;8.566;2023-01-26T11:30:26;96603.78;;;1.80;100.00
39243;BME280;29823;47.404;8.566;2023-01-26T11:33:04;96611.22;;;1.77;100.00
39243;BME280;29823;47.404;8.566;2023-01-26T11:35:40;96603.31;;;1.77;100.00
39243;BME280;29823;47.404;8.566;2023-01-26T11:38:23;96612.38;;;1.74;100.00
39243;BME280;29823;47.404;8.566;2023-01-26T11:41:00;96605.19;;;1.46;100.00
39243;BME280;29823;47.404;8.566;2023-01-26T11:44:06;96602.56;;;1.68;100.00
39243;BME280;29823;47.404;8.566;2023-01-26T11:46:54;96606.59;;;1.56;100.00
39243;BME280;29823;47.404;8.566;2023-01-26T11:49:40;96606.91;;;1.53;100.00
39243;BME280;29823;47.404;8.566;2023-01-26T11:52:20;96599.31;;;1.58;100.00
39243;BME280;29823;47.404;8.566;2023-01-26T11:55:12;96603.16;;;1.78;100.00
39243;BME280;29823;47.404;8.566;2023-01-26T11:57:55;96595.75;;;1.96;100.00
39243;BME280;29823;47.404;8.566;2023-01-26T12:00:29;96599.28;;;1.66;100.00
39243;BME280;29823;47.404;8.566;2023-01-26T12:03:03;96598.91;;;1.69;100.00
39243;BME280;29823;47.404;8.566;2023-01-26T12:05:40;96598.19;;;1.83;100.00
39243;BME280;29823;47.404;8.566;2023-01-26T12:08:15;96597.41;;;1.75;100.00
39243;BME280;29823;47.404;8.566;2023-01-26T12:10:48;96577.16;;;1.75;100.00
39243;BME280;29823;47.404;8.566;2023-01-26T12:13:22;96572.88;;;1.74;100.00
39243;BME280;29823;47.404;8.566;2023-01-26T12:16:00;96580.72;;;1.82;100.00
39243;BME280;29823;47.404;8.566;2023-01-26T12:18:33;96577.66;;;1.71;100.00
39243;BME280;29823;47.404;8.566;2023-01-26T12:21:22;96582.53;;;1.82;100.00
39243;BME280;29823;47.404;8.566;2023-01-26T12:23:55;96586.13;;;1.89;100.00
39243;BME280;29823;47.404;8.566;2023-01-26T12:26:27;96580.84;;;1.89;100.00
39243;BME280;29823;47.404;8.566;2023-01-26T12:29:02;96585.47;;;1.87;100.00
39243;BME280;29823;47.404;8.566;2023-01-26T12:31:39;96574.94;;;1.64;100.00
39243;BME280;29823;47.404;8.566;2023-01-26T12:34:11;96570.22;;;1.52;100.00
39243;BME280;29823;47.404;8.566;2023-01-26T12:36:47;96555.59;;;1.49;100.00
39243;BME280;29823;47.404;8.566;2023-01-26T12:39:24;96567.66;;;1.66;100.00
39243;BME280;29823;47.404;8.566;2023-01-26T12:42:11;96562.81;;;1.78;100.00
39243;BME280;29823;47.404;8.566;2023-01-26T12:44:45;96558.97;;;1.80;100.00
39243;BME280;29823;47.404;8.566;2023-01-26T12:47:18;96560.28;;;1.84;100.00
39243;BME280;29823;47.404;8.566;2023-01-26T12:49:53;96568.72;;;1.80;100.00
39243;BME280;29823;47.404;8.566;2023-01-26T12:52:29;96558.13;;;1.65;100.00
39243;BME280;29823;47.404;8.566;2023-01-26T12:55:03;96562.97;;;1.54;100.00
39243;BME280;29823;47.404;8.566;2023-01-26T12:57:37;96558.75;;;1.67;100.00
39243;BME280;29823;47.404;8.566;2023-01-26T13:00:19;96567.03;;;1.64;100.00
39243;BME280;29823;47.404;8.566;2023-01-26T13:02:50;96556.69;;;1.32;100.00
39243;BME280;29823;47.404;8.566;2023-01-26T13:05:28;96562.38;;;1.44;100.00
39243;BME280;29823;47.404;8.566;2023-01-26T13:11:05;96559.22;;;1.48;100.00
39243;BME280;29823;47.404;8.566;2023-01-26T13:13:51;96556.53;;;1.56;100.00
39243;BME280;29823;47.404;8.566;2023-01-26T13:16:32;96559.03;;;1.19;100.00
39243;BME280;29823;47.404;8.566;2023-01-26T13:19:01;96554.22;;;1.00;100.00
39243;BME280;29823;47.404;8.566;2023-01-26T13:21:41;96561.03;;;1.17;100.00
39243;BME280;29823;47.404;8.566;2023-01-26T13:24:41;96554.22;;;1.00;100.00
39243;BME280;29823;47.404;8.566;2023-01-26T13:27:28;96552.91;;;0.96;100.00
39243;BME280;29823;47.404;8.566;2023-01-26T13:29:56;96552.22;;;1.02;100.00
39243;BME280;29823;47.404;8.566;2023-01-26T13:33:01;96541.22;;;0.99;100.00